Hector International Airport
KFAR : now visible

Airfield :











YOU CAN JOIN US ON...

 
LOGIN :

Register | Disclaimer

   EN    FR    IT 

 









Legend :    VFR   Marginal VFR   IFR   Intensive IFR   Very Intensive IFR
Visi :
Ceiling :
>= 8 km
>= 3000ft
5 to 8 km
1000 to 3000 ft
1500m to 5 km
500 to 1000 ft
800 to 1500m
200 to 500 ft
< 800m
< 200 ft
Symbols :   Thunderstorms  Fog  Heavy snow  Heavy precipitations  Wind > 20 kt






- Airport Elevation : 902 ft
- IATA code : FAR


KFAR - Hector International

CURRENT METAR :
  • 201953Z 13014G23KT 3/4SM -SN BR BKN007 OVC013 00/M01 A2996 RMK AO2 PK WND 12026/1940 SLP157 P0003 T00001011

EXPIRED METARs :
  • 201853Z 13012G22KT 1/2SM SN FG BKN007 OVC012 00/M01 A2999 RMK AO2 PK WND 15026/1813 SLP169 P0005 T00001011
  • 201753Z 14013G22KT 1/2SM SN FG OVC006 00/M01 A3003 RMK AO2 PK WND 14026/1726 SLP180 P0006 60014 T00001011 10011 20000 58020
  • 201726Z 13018G26KT 1/4SM SN FG OVC006 00/M01 A3004 RMK AO2 PK WND 14026/1726 P0003 T00001011

TAF KFAR
Valid from the 20 at 18:00 until the 21 at 18:00 UTC


201745Z 2018/2118 13015G24KT 1SM -SN OVC010
TEMPO 2018/2021 1/2SM SN OVC006
FM210000 15013G18KT 4SM -SN OVC008
FM210300 23010KT P6SM BKN005
FM210800 27011KT P6SM SCT060
FM211300 25010KT P6SM BKN100
KZMP FIR / North America



MET'MAP, your aeronautical weather chart ! - Copyright ORBIFLY December 2007 - Disclaimer

ORBIFLY MET'MAP TEAM :

Programming & Development : Alexandra Zaïnal
Concept & original design : Baudouin d'Aumeries
Assistance for programming : Marc-Olivier Méhu
Technical & hardware support : Manuel Goepfert

Contact : metmap@orbifly.com




SOURCES & CREDITS :

   NOAA       Earth
Advisory